Time;durP1;ratioP1;P1;durP2;ratioP2;P2;SDS_P1;SDS_P2;PMS_P1;PMS_P2;Temp;Humidity;BMP_temperature;BMP_pressure;BME280_temperature;BME280_humidity;BME280_pressure;Samples;Min_cycle;Max_cycle;Signal;HPM_P1;HPM_P2
2022/07/05 00:00:19;;;;;;;12.35;5.20;;;;;;;23.20;56.85;100234.92;1719508;83;21490;-74
2022/07/05 00:02:48;;;;;;;10.85;5.42;;;;;;;23.13;57.13;100231.03;1727138;83;21039;-74
2022/07/05 00:05:18;;;;;;;7.75;4.92;;;;;;;22.98;57.79;100229.68;1711891;83;21071;-76
2022/07/05 00:07:47;;;;;;;9.45;5.28;;;;;;;22.90;58.10;100238.09;1713665;83;21066;-74
2022/07/05 00:10:17;;;;;;;8.43;5.30;;;;;;;22.89;58.29;100242.00;1712708;83;21475;-76
2022/07/05 00:12:46;;;;;;;9.40;5.55;;;;;;;22.88;58.40;100240.33;1706815;83;21031;-74
2022/07/05 00:15:16;;;;;;;9.10;5.47;;;;;;;22.86;58.46;100238.38;1705533;83;21007;-74
2022/07/05 00:17:45;;;;;;;8.58;5.75;;;;;;;22.85;58.56;100238.66;1703131;83;21087;-74
2022/07/05 00:20:15;;;;;;;8.88;5.83;;;;;;;22.84;58.75;100235.59;1701569;83;21095;-76
2022/07/05 00:22:46;;;;;;;10.32;5.53;;;;;;;22.82;58.84;100238.67;1713442;83;21067;-76
2022/07/05 00:25:15;;;;;;;8.48;5.70;;;;;;;22.81;59.02;100239.78;1704025;83;21070;-76
2022/07/05 00:27:45;;;;;;;9.38;5.35;;;;;;;22.81;59.11;100235.59;1710686;83;21039;-75
2022/07/05 00:30:16;;;;;;;9.18;5.40;;;;;;;22.78;59.24;100238.92;1712731;83;21019;-76
2022/07/05 00:32:46;;;;;;;8.00;5.83;;;;;;;22.68;59.46;100241.70;1708979;83;21074;-77
2022/07/05 00:35:17;;;;;;;7.22;5.40;;;;;;;22.62;59.62;100242.83;1714899;83;21047;-76
2022/07/05 00:37:47;;;;;;;9.58;5.58;;;;;;;22.60;59.80;100247.30;1723028;83;21047;-75
2022/07/05 00:40:16;;;;;;;8.23;5.70;;;;;;;22.57;59.90;100243.67;1713602;83;21078;-74
2022/07/05 00:42:44;;;;;;;9.53;5.28;;;;;;;22.54;59.99;100245.62;1718854;83;21026;-75
2022/07/05 00:45:14;;;;;;;7.92;5.75;;;;;;;22.53;60.17;100245.91;1728023;83;21011;-74
2022/07/05 00:47:44;;;;;;;11.12;5.03;;;;;;;22.53;60.40;100241.72;1717471;82;21031;-74
2022/07/05 00:50:14;;;;;;;6.92;5.30;;;;;;;22.51;60.58;100249.54;1726690;82;21130;-74
2022/07/05 00:52:45;;;;;;;8.18;5.83;;;;;;;22.46;60.55;100254.57;1695186;83;21472;-73
2022/07/05 00:55:15;;;;;;;7.22;5.37;;;;;;;22.40;60.55;100245.36;1722273;82;21094;-74
2022/07/05 00:57:44;;;;;;;11.53;5.53;;;;;;;22.38;60.50;100254.57;1715589;83;21091;-75
2022/07/05 01:00:14;;;;;;;7.03;5.12;;;;;;;22.36;60.65;100255.97;1713320;83;21023;-75
2022/07/05 01:02:44;;;;;;;7.47;4.90;;;;;;;22.36;60.99;100252.62;1715224;83;21040;-76
2022/07/05 01:05:13;;;;;;;9.75;5.47;;;;;;;22.38;61.10;100260.16;1725290;83;21000;-75
2022/07/05 01:07:43;;;;;;;10.25;5.12;;;;;;;22.41;61.00;100265.19;1730537;83;21050;-75
2022/07/05 01:10:14;;;;;;;6.80;5.30;;;;;;;22.42;60.97;100259.88;1713509;83;21027;-75
2022/07/05 01:12:44;;;;;;;11.55;4.85;;;;;;;22.43;61.01;100252.34;1724389;83;21032;-75
2022/07/05 01:15:13;;;;;;;8.65;5.22;;;;;;;22.37;61.12;100251.50;1720750;83;21055;-76
2022/07/05 01:17:45;;;;;;;8.45;5.58;;;;;;;22.28;61.37;100250.39;1684119;84;21086;-75
2022/07/05 01:20:14;;;;;;;8.60;5.65;;;;;;;22.24;61.54;100249.27;1717068;83;21101;-75
2022/07/05 01:22:59;;;;;;;6.62;5.20;;;;;;;22.23;61.55;100248.16;1721358;83;21016;-75
2022/07/05 01:25:29;;;;;;;8.15;5.12;;;;;;;22.22;61.54;100242.29;1701678;84;21501;-75
2022/07/05 01:28:00;;;;;;;8.15;5.17;;;;;;;22.21;61.45;100245.64;1692742;84;21422;-76
2022/07/05 01:30:29;;;;;;;9.15;4.80;;;;;;;22.21;61.58;100243.41;1697748;83;21527;-76
2022/07/05 01:32:59;;;;;;;8.28;5.45;;;;;;;22.18;61.84;100244.80;1714103;83;21094;-74
2022/07/05 01:35:29;;;;;;;10.13;5.33;;;;;;;22.14;62.00;100245.91;1691993;83;21072;-76
2022/07/05 01:37:59;;;;;;;11.03;5.42;;;;;;;22.13;62.12;100240.61;1703619;83;21266;-73
2022/07/05 01:40:28;;;;;;;9.20;4.83;;;;;;;22.11;62.13;100246.47;1704099;83;21023;-74
2022/07/05 01:42:58;;;;;;;7.10;5.12;;;;;;;22.10;62.34;100248.11;1697713;83;21033;-72
2022/07/05 01:45:40;;;;;;;8.70;5.28;;;;;;;22.08;62.52;100251.18;1692772;85;21018;-74
2022/07/05 01:48:13;;;;;;;11.05;5.50;;;;;;;22.06;62.56;100257.59;1686763;84;21056;-75
2022/07/05 01:50:49;;;;;;;7.28;5.45;;;;;;;22.08;62.40;100256.77;1708578;83;21003;-74
2022/07/05 01:53:24;;;;;;;12.43;5.78;;;;;;;22.05;62.36;100251.73;1699751;83;21042;-74
2022/07/05 01:55:54;;;;;;;9.03;5.47;;;;;;;22.01;62.30;100252.53;1716296;83;21462;-75
2022/07/05 01:58:25;;;;;;;7.80;5.45;;;;;;;22.02;62.08;100256.44;1669756;85;21066;-75
2022/07/05 02:00:55;;;;;;;16.67;6.17;;;;;;;22.02;61.98;100249.47;1693404;83;21089;-76
2022/07/05 02:03:27;;;;;;;8.10;5.05;;;;;;;22.00;62.23;100250.86;1714366;83;21086;-76
2022/07/05 02:05:58;;;;;;;12.30;5.37;;;;;;;21.93;62.43;100260.89;1720507;83;21019;-76
2022/07/05 02:08:29;;;;;;;10.50;5.40;;;;;;;21.86;62.65;100265.06;1701242;83;21065;-75
2022/07/05 02:11:00;;;;;;;9.65;5.70;;;;;;;21.85;62.70;100255.85;1705922;83;21438;-74
2022/07/05 02:13:30;;;;;;;9.28;5.90;;;;;;;21.90;62.53;100255.03;1701392;83;21091;-75
2022/07/05 02:16:01;;;;;;;9.85;5.28;;;;;;;21.93;62.48;100258.10;1705293;83;21041;-72
2022/07/05 02:18:31;;;;;;;7.60;5.50;;;;;;;21.95;62.33;100257.27;1700424;83;21459;-75
2022/07/05 02:21:02;;;;;;;8.75;5.10;;;;;;;22.00;62.15;100255.05;1718676;83;21022;-74
2022/07/05 02:23:32;;;;;;;11.33;5.97;;;;;;;22.04;62.05;100256.20;1709849;83;21030;-75
2022/07/05 02:26:02;;;;;;;7.75;5.03;;;;;;;22.06;62.03;100260.95;1715051;82;21066;-74
2022/07/05 02:28:31;;;;;;;7.33;5.30;;;;;;;22.06;62.09;100258.98;1704350;83;21027;-75
2022/07/05 02:31:02;;;;;;;8.10;4.83;;;;;;;22.04;62.39;100261.22;1707657;83;21043;-74
2022/07/05 02:33:32;;;;;;;10.48;5.33;;;;;;;22.00;62.58;100259.23;1717320;83;21021;-73
2022/07/05 02:36:13;;;;;;;6.72;5.10;;;;;;;22.02;62.65;100257.00;1699915;83;21067;-75
2022/07/05 02:38:42;;;;;;;11.00;5.58;;;;;;;22.04;62.68;100258.98;1708444;83;21030;-76
2022/07/05 02:41:12;;;;;;;10.15;5.80;;;;;;;22.04;62.95;100262.61;1730412;82;21015;-75
2022/07/05 02:43:43;;;;;;;7.67;5.08;;;;;;;22.05;63.11;100259.27;1705273;83;21464;-76
2022/07/05 02:46:12;;;;;;;8.65;5.45;;;;;;;22.07;63.26;100259.27;1741106;82;21011;-74
2022/07/05 02:48:42;;;;;;;7.15;5.10;;;;;;;22.11;63.17;100257.63;1720388;82;21032;-75
2022/07/05 02:51:11;;;;;;;7.60;5.50;;;;;;;22.16;62.91;100254.01;1693165;83;21067;-75
2022/07/05 02:53:41;;;;;;;8.25;5.35;;;;;;;22.21;62.79;100260.16;1705200;83;21043;-75
2022/07/05 02:56:10;;;;;;;19.30;7.12;;;;;;;22.24;62.63;100253.45;1709844;83;21027;-75
2022/07/05 02:58:39;;;;;;;11.22;6.00;;;;;;;22.30;62.56;100258.48;1720213;82;21067;-74
2022/07/05 03:01:09;;;;;;;23.52;6.80;;;;;;;22.34;62.47;100258.20;1737516;82;21051;-74
2022/07/05 03:03:39;;;;;;;11.65;5.78;;;;;;;22.41;62.38;100260.16;1736829;82;21030;-73
2022/07/05 03:06:10;;;;;;;11.08;5.50;;;;;;;22.46;62.20;100264.34;1692735;83;21023;-74
2022/07/05 03:08:41;;;;;;;9.20;5.42;;;;;;;22.54;62.05;100256.80;1727319;82;21039;-74
2022/07/05 03:11:11;;;;;;;9.75;5.67;;;;;;;22.64;61.89;100254.55;1673907;83;21114;-75
2022/07/05 03:13:41;;;;;;;8.43;5.50;;;;;;;22.71;61.71;100262.92;1693834;83;21032;-75
2022/07/05 03:16:11;;;;;;;8.98;5.85;;;;;;;22.76;61.55;100258.76;1691375;83;21023;-75
2022/07/05 03:18:41;;;;;;;9.45;5.05;;;;;;;22.84;61.41;100250.95;1705357;83;21123;-74
2022/07/05 03:21:12;;;;;;;9.65;5.00;;;;;;;22.94;61.32;100259.31;1717514;83;21027;-75
2022/07/05 03:23:42;;;;;;;11.22;5.72;;;;;;;23.01;61.14;100264.88;1689516;84;21066;-74
2022/07/05 03:26:12;;;;;;;11.12;5.65;;;;;;;23.11;61.04;100261.78;1738483;82;21035;-74
2022/07/05 03:28:42;;;;;;;7.15;5.05;;;;;;;23.21;60.91;100261.19;1721601;83;21042;-76
2022/07/05 03:31:12;;;;;;;9.93;5.17;;;;;;;23.30;60.76;100260.87;1715190;83;21104;-74
2022/07/05 03:33:43;;;;;;;9.73;5.28;;;;;;;23.40;60.59;100265.03;1727853;82;21077;-74
2022/07/05 03:36:14;;;;;;;9.05;5.25;;;;;;;23.51;60.48;100265.85;1714508;83;21020;-74
2022/07/05 03:38:45;;;;;;;8.90;5.28;;;;;;;23.60;60.41;100266.12;1696000;83;21462;-74
2022/07/05 03:41:15;;;;;;;10.43;5.42;;;;;;;23.68;60.25;100271.95;1715878;83;21019;-73
2022/07/05 03:43:45;;;;;;;6.92;5.00;;;;;;;23.76;59.99;100272.48;1740309;82;21027;-74
2022/07/05 03:46:15;;;;;;;7.62;4.80;;;;;;;23.82;59.80;100270.76;1738678;82;20988;-74
2022/07/05 03:48:45;;;;;;;8.50;4.97;;;;;;;23.89;59.66;100271.84;1742355;82;21049;-74
2022/07/05 03:51:16;;;;;;;9.75;5.28;;;;;;;23.91;59.55;100270.98;1715815;83;21493;-73
2022/07/05 03:53:47;;;;;;;7.37;4.78;;;;;;;23.93;59.17;100277.13;1709491;83;21038;-73
2022/07/05 03:56:19;;;;;;;7.80;5.40;;;;;;;23.95;58.88;100280.48;1715531;83;20999;-74
2022/07/05 03:58:50;;;;;;;9.70;5.05;;;;;;;24.00;58.67;100278.48;1707917;83;21100;-75
2022/07/05 04:01:22;;;;;;;9.65;5.45;;;;;;;24.03;58.50;100274.27;1734241;82;21018;-73
2022/07/05 04:03:52;;;;;;;6.55;5.20;;;;;;;24.08;58.72;100271.46;1703718;83;21489;-74
2022/07/05 04:06:23;;;;;;;13.30;5.97;;;;;;;24.12;58.68;100275.35;1732619;82;21008;-74
2022/07/05 04:08:55;;;;;;;8.90;5.03;;;;;;;24.15;58.70;100274.77;1734855;82;20999;-74
2022/07/05 04:11:25;;;;;;;7.47;4.90;;;;;;;24.20;58.45;100275.30;1745634;82;21019;-74
2022/07/05 04:13:57;;;;;;;7.67;4.60;;;;;;;24.26;57.88;100267.97;1721923;82;21070;-74
2022/07/05 04:16:27;;;;;;;7.90;5.12;;;;;;;24.31;57.43;100265.73;1727085;83;21059;-73
2022/07/05 04:18:57;;;;;;;10.48;5.17;;;;;;;24.38;57.36;100266.79;1686273;83;21043;-75
2022/07/05 04:21:28;;;;;;;5.67;4.78;;;;;;;24.45;57.26;100268.13;1709505;83;21055;-71
2022/07/05 04:24:00;;;;;;;7.22;4.90;;;;;;;24.50;57.36;100265.84;1715392;83;21031;-76
2022/07/05 04:26:30;;;;;;;13.60;5.70;;;;;;;24.54;57.25;100266.37;1694935;83;21053;-71
2022/07/05 04:29:00;;;;;;;9.13;4.83;;;;;;;24.61;57.00;100273.03;1737674;82;21049;-76
2022/07/05 04:31:33;;;;;;;6.28;4.45;;;;;;;24.69;56.48;100265.39;1732695;83;21056;-74
2022/07/05 04:34:04;;;;;;;16.95;5.95;;;;;;;24.79;56.13;100259.72;1707118;83;21472;-75
2022/07/05 04:36:40;;;;;;;6.53;5.10;;;;;;;24.90;55.78;100263.25;1712379;83;21022;-76
2022/07/05 04:39:10;;;;;;;5.90;4.87;;;;;;;25.01;55.51;100264.02;1713197;83;21008;-76
2022/07/05 04:41:41;;;;;;;10.28;5.53;;;;;;;25.10;55.27;100268.67;1713159;83;21027;-75
2022/07/05 04:44:11;;;;;;;9.08;5.28;;;;;;;25.15;55.08;100268.61;1718439;83;21042;-76
2022/07/05 04:46:41;;;;;;;11.08;5.67;;;;;;;25.20;55.16;100267.16;1690928;83;21075;-75
2022/07/05 04:49:11;;;;;;;7.10;4.95;;;;;;;25.22;55.25;100259.84;1718533;83;21066;-75
2022/07/05 04:51:41;;;;;;;9.18;5.60;;;;;;;25.23;56.15;100260.11;1707704;83;21035;-74
2022/07/05 04:54:13;;;;;;;10.05;5.17;;;;;;;25.19;56.49;100264.08;1706212;83;21043;-73
2022/07/05 04:56:43;;;;;;;9.35;5.50;;;;;;;25.19;56.35;100263.24;1727220;83;21062;-75
2022/07/05 04:59:13;;;;;;;9.10;5.42;;;;;;;25.20;56.40;100264.91;1705783;83;21039;-72
2022/07/05 05:01:43;;;;;;;14.25;6.30;;;;;;;25.24;55.82;100263.19;1707760;83;21042;-75
2022/07/05 05:04:13;;;;;;;13.08;5.97;;;;;;;25.32;55.27;100254.68;1701561;83;21066;-74
2022/07/05 05:06:43;;;;;;;14.20;6.00;;;;;;;25.48;55.33;100254.22;1717687;83;21055;-75
2022/07/05 05:09:13;;;;;;;14.93;6.15;;;;;;;25.66;54.65;100256.81;1716142;83;21075;-73
2022/07/05 05:11:42;;;;;;;16.60;6.62;;;;;;;25.89;53.39;100257.90;1713214;83;21094;-72
2022/07/05 05:14:13;;;;;;;9.40;6.12;;;;;;;26.13;52.57;100260.09;1715223;83;21091;-74
2022/07/05 05:16:43;;;;;;;8.48;5.35;;;;;;;26.39;52.23;100261.95;1723760;83;21031;-73
2022/07/05 05:19:15;;;;;;;9.40;5.55;;;;;;;26.59;52.14;100266.38;1718041;83;21083;-75
2022/07/05 05:21:45;;;;;;;14.18;7.30;;;;;;;26.77;52.42;100268.91;1709078;83;21019;-75
2022/07/05 05:24:15;;;;;;;12.33;8.43;;;;;;;26.98;51.58;100267.99;1726449;83;21443;-74
2022/07/05 05:26:45;;;;;;;13.40;7.58;;;;;;;27.12;50.53;100268.84;1694647;84;21534;-75
2022/07/05 05:29:17;;;;;;;18.98;6.62;;;;;;;27.18;50.36;100269.00;1689591;84;21071;-75
2022/07/05 05:31:47;;;;;;;12.82;6.20;;;;;;;27.31;49.97;100273.83;1683672;84;21052;-75
2022/07/05 05:34:17;;;;;;;10.13;5.72;;;;;;;27.60;49.76;100267.87;1686000;84;21102;-75
2022/07/05 05:36:49;;;;;;;10.28;5.95;;;;;;;27.87;48.98;100267.60;1682986;84;21051;-73
2022/07/05 05:39:19;;;;;;;13.75;5.97;;;;;;;28.06;48.55;100273.95;1679204;84;21059;-77
2022/07/05 05:41:48;;;;;;;14.73;5.97;;;;;;;28.18;47.96;100275.63;1694451;84;21439;-75
2022/07/05 05:44:18;;;;;;;12.23;5.62;;;;;;;28.26;47.66;100274.91;1679850;84;21055;-76
2022/07/05 05:46:50;;;;;;;15.08;6.15;;;;;;;28.31;47.34;100266.33;1692447;84;21035;-75
2022/07/05 05:49:19;;;;;;;23.35;7.47;;;;;;;28.29;47.15;100264.40;1691046;84;21111;-74
2022/07/05 05:51:49;;;;;;;11.78;6.80;;;;;;;28.33;47.46;100270.23;1682276;84;21461;-76
2022/07/05 05:54:19;;;;;;;9.75;6.05;;;;;;;28.39;47.40;100268.95;1656219;84;21066;-73
2022/07/05 05:56:52;;;;;;;11.73;5.72;;;;;;;28.49;47.09;100264.47;1689170;84;21055;-74
2022/07/05 05:59:22;;;;;;;9.35;5.87;;;;;;;28.60;46.60;100270.68;1699613;84;21074;-74
2022/07/05 06:01:52;;;;;;;10.18;5.95;;;;;;;28.75;46.29;100263.84;1697624;84;20999;-76
2022/07/05 06:04:22;;;;;;;11.53;6.17;;;;;;;29.00;46.48;100268.83;1699323;84;21112;-74
2022/07/05 06:06:52;;;;;;;12.95;5.85;;;;;;;29.33;45.85;100258.88;1697819;84;21030;-75
2022/07/05 06:09:22;;;;;;;12.90;6.80;;;;;;;29.67;44.65;100262.99;1676152;84;21033;-75
2022/07/05 06:11:52;;;;;;;12.10;5.70;;;;;;;29.90;44.42;100264.53;1687520;84;21557;-73
2022/07/05 06:14:24;;;;;;;9.30;6.47;;;;;;;30.15;43.93;100268.61;1687388;84;21087;-76
2022/07/05 06:16:53;;;;;;;12.10;6.95;;;;;;;30.34;43.40;100269.69;1681595;84;21051;-74
2022/07/05 06:19:25;;;;;;;15.43;7.15;;;;;;;30.54;43.30;100268.17;1693034;84;21043;-74
2022/07/05 06:21:54;;;;;;;13.83;5.83;;;;;;;30.77;42.84;100272.52;1666870;84;21031;-75
2022/07/05 06:24:26;;;;;;;12.80;7.08;;;;;;;30.99;42.03;100266.39;1691932;84;21035;-75
2022/07/05 06:26:55;;;;;;;11.68;6.12;;;;;;;31.10;41.83;100268.52;1684288;83;21072;-74
2022/07/05 06:29:25;;;;;;;12.25;5.25;;;;;;;31.07;40.98;100261.28;1692733;85;20995;-75
2022/07/05 06:31:59;;;;;;;13.70;5.17;;;;;;;31.24;40.13;100266.11;1692161;85;21118;-75
2022/07/05 06:34:31;;;;;;;13.35;5.42;;;;;;;31.48;38.49;100260.08;1693365;83;21080;-74
2022/07/05 06:37:02;;;;;;;10.32;5.15;;;;;;;31.75;37.81;100259.36;1692233;85;21044;-75
2022/07/05 06:39:33;;;;;;;11.43;5.35;;;;;;;32.02;36.52;100265.95;1687378;83;21572;-76
2022/07/05 06:42:03;;;;;;;14.90;5.70;;;;;;;32.19;35.66;100262.16;1697169;83;21035;-75
2022/07/05 06:44:34;;;;;;;11.73;4.80;;;;;;;32.23;35.50;100258.04;1694530;84;21080;-77
2022/07/05 06:47:06;;;;;;;19.32;6.08;;;;;;;32.41;35.12;100263.83;1704992;83;21031;-75
2022/07/05 06:49:36;;;;;;;8.48;4.30;;;;;;;32.58;35.01;100267.13;1704893;83;21010;-75
2022/07/05 06:52:06;;;;;;;9.78;4.83;;;;;;;32.66;34.56;100259.11;1707117;83;21007;-73
2022/07/05 06:54:36;;;;;;;11.40;5.53;;;;;;;32.54;35.03;100264.74;1690121;84;21040;-76
2022/07/05 06:57:12;;;;;;;9.88;5.12;;;;;;;32.54;35.30;100256.23;1689476;85;21140;-75
2022/07/05 06:59:45;;;;;;;11.28;5.22;;;;;;;32.73;35.02;100257.95;1688748;84;21021;-74
2022/07/05 07:02:16;;;;;;;14.98;5.67;;;;;;;32.99;35.07;100262.78;1690329;84;21087;-74
2022/07/05 07:04:49;;;;;;;11.10;5.30;;;;;;;33.23;34.54;100269.12;1709330;83;21009;-76
2022/07/05 07:10:12;;;;;;;12.50;5.87;;;;;;;33.76;34.04;100270.70;1704910;83;21042;-76
2022/07/05 07:12:42;;;;;;;14.58;5.90;;;;;;;34.00;33.62;100265.86;1713594;83;21046;-75
2022/07/05 07:15:11;;;;;;;13.00;5.37;;;;;;;34.24;33.20;100270.66;1714319;83;21036;-74
2022/07/05 07:17:42;;;;;;;8.60;4.72;;;;;;;34.44;32.57;100268.02;1706275;83;21041;-75
2022/07/05 07:20:13;;;;;;;11.57;5.10;;;;;;;34.59;31.88;100271.53;1692701;85;21022;-75
2022/07/05 07:22:43;;;;;;;6.97;4.55;;;;;;;34.68;31.19;100270.78;1692762;83;21035;-76
2022/07/05 07:25:12;;;;;;;8.98;4.15;;;;;;;34.75;31.21;100265.88;1692694;84;21162;-73
2022/07/05 07:27:45;;;;;;;13.68;5.08;;;;;;;34.84;30.34;100265.16;1707917;83;21035;-76
2022/07/05 07:30:19;;;;;;;11.70;5.03;;;;;;;34.92;30.81;100272.11;1712513;83;21142;-76
2022/07/05 07:32:48;;;;;;;7.80;4.67;;;;;;;34.99;31.08;100260.67;1705051;83;21000;-76
2022/07/05 07:35:18;;;;;;;11.30;4.50;;;;;;;35.10;30.51;100268.91;1682239;85;21122;-74
2022/07/05 07:37:47;;;;;;;4.58;3.67;;;;;;;35.23;30.30;100277.63;1681498;85;21033;-75
2022/07/05 07:40:18;;;;;;;4.55;3.50;;;;;;;35.39;29.09;100262.82;1679433;85;21072;-75
2022/07/05 07:42:48;;;;;;;6.35;3.50;;;;;;;35.44;28.88;100259.69;1681353;85;21082;-77
2022/07/05 07:45:19;;;;;;;5.53;3.60;;;;;;;35.51;28.46;100263.31;1705727;83;21056;-77
2022/07/05 07:47:49;;;;;;;8.00;3.60;;;;;;;35.57;27.97;100265.52;1673687;85;21085;-77
2022/07/05 07:50:18;;;;;;;6.53;3.70;;;;;;;35.54;28.24;100266.25;1658482;85;21029;-77
2022/07/05 07:52:50;;;;;;;10.58;4.15;;;;;;;35.59;28.24;100264.55;1680355;85;21468;-77
2022/07/05 07:55:20;;;;;;;10.38;5.45;;;;;;;35.62;28.12;100257.28;1668086;83;21498;-76
2022/07/05 07:57:49;;;;;;;6.37;3.58;;;;;;;35.65;28.41;100255.71;1652297;85;21488;-75
2022/07/05 08:00:19;;;;;;;4.95;3.50;;;;;;;35.75;27.73;100253.71;1666096;85;21035;-75
2022/07/05 08:02:51;;;;;;;4.58;3.30;;;;;;;35.71;27.10;100242.83;1690427;84;21031;-77
2022/07/05 08:05:20;;;;;;;7.58;3.60;;;;;;;35.69;27.63;100246.05;1685068;84;21487;-77
2022/07/05 08:07:51;;;;;;;6.72;4.00;;;;;;;35.77;27.76;100247.90;1655171;85;21076;-75
2022/07/05 08:10:22;;;;;;;9.68;4.03;;;;;;;35.82;27.83;100237.66;1665979;85;21472;-76
2022/07/05 08:12:52;;;;;;;5.50;3.80;;;;;;;35.82;28.21;100238.27;1671335;85;21126;-76
2022/07/05 08:15:22;;;;;;;7.10;3.95;;;;;;;35.94;26.76;100243.01;1707643;83;21081;-79
2022/07/05 08:23:31;;;;;;;6.83;3.58;;;;;;;36.07;27.54;100227.41;1713614;82;21111;-69
2022/07/05 08:26:01;;;;;;;5.85;3.37;;;;;;;36.23;27.00;100228.17;1696507;83;21145;-67
2022/07/05 08:28:30;;;;;;;5.10;3.70;;;;;;;36.29;26.63;100220.17;1711963;82;21471;-69
2022/07/05 08:31:02;;;;;;;10.50;4.40;;;;;;;36.35;26.71;100217.23;1724984;82;21515;-69
2022/07/05 08:33:32;;;;;;;6.47;3.50;;;;;;;36.45;26.02;100218.09;1727811;82;21087;-68
2022/07/05 08:36:02;;;;;;;7.58;3.50;;;;;;;36.44;26.32;100210.73;1733074;82;21081;-70
2022/07/05 08:38:32;;;;;;;10.82;4.15;;;;;;;36.59;26.33;100214.09;1727527;82;21483;-69
2022/07/05 08:41:02;;;;;;;5.37;3.90;;;;;;;36.78;26.07;100218.37;1704520;83;21027;-68
2022/07/05 08:43:33;;;;;;;7.67;3.65;;;;;;;36.80;25.94;100221.67;1701804;83;21121;-69
2022/07/05 08:46:03;;;;;;;5.72;3.62;;;;;;;36.83;25.70;100222.94;1730948;82;21051;-69
2022/07/05 08:48:34;;;;;;;5.53;3.60;;;;;;;36.73;26.10;100217.22;1712895;82;21016;-69
2022/07/05 08:51:04;;;;;;;4.85;3.70;;;;;;;36.76;26.10;100225.06;1733298;81;21059;-70
2022/07/05 08:53:33;;;;;;;7.30;3.95;;;;;;;36.83;25.79;100226.63;1710745;83;21072;-68
2022/07/05 08:56:03;;;;;;;5.83;3.60;;;;;;;36.88;25.72;100222.63;1709630;83;21134;-63
2022/07/05 08:58:33;;;;;;;5.87;3.70;;;;;;;36.97;25.67;100228.91;1721199;82;21121;-70
2022/07/05 09:01:02;;;;;;;5.95;3.42;;;;;;;36.95;25.32;100221.33;1724977;82;21083;-72
2022/07/05 09:03:38;;;;;;;10.00;8.85;;;;;;;36.97;25.19;100223.80;1727267;83;21078;-68
2022/07/05 09:06:13;;;;;;;6.85;3.85;;;;;;;36.95;25.23;100220.50;1697434;83;21502;-66
2022/07/05 09:08:43;;;;;;;8.33;3.95;;;;;;;36.92;25.48;100221.27;1710508;82;21110;-68
2022/07/05 09:11:14;;;;;;;4.62;4.00;;;;;;;36.96;25.25;100228.69;1714495;83;21023;-70
2022/07/05 09:13:49;;;;;;;4.53;3.65;;;;;;;37.00;24.99;100224.47;1729505;83;21047;-69
2022/07/05 09:16:22;;;;;;;4.80;3.65;;;;;;;36.93;24.60;100224.34;1719384;82;21106;-69
2022/07/05 09:18:54;;;;;;;7.92;4.20;;;;;;;36.60;24.62;100227.16;1728773;83;21055;-69
2022/07/05 09:21:24;;;;;;;4.70;3.62;;;;;;;36.17;25.52;100220.52;1705472;84;21111;-68
2022/07/05 09:24:06;;;;;;;5.05;4.00;;;;;;;35.94;25.94;100225.30;1721432;83;21067;-70
2022/07/05 09:26:45;;;;;;;5.58;3.95;;;;;;;35.86;25.82;100226.34;1742966;82;21823;-68
2022/07/05 09:29:17;;;;;;;7.17;3.83;;;;;;;35.78;25.89;100225.91;1707230;83;21638;-69
2022/07/05 09:31:50;;;;;;;5.70;4.10;;;;;;;35.63;25.97;100224.72;1715668;83;21059;-69
2022/07/05 09:34:20;;;;;;;22.48;20.43;;;;;;;35.56;25.89;100225.98;1717185;83;21111;-68
2022/07/05 09:36:54;;;;;;;7.65;5.42;;;;;;;35.59;26.14;100226.06;1720482;83;21101;-67
2022/07/05 09:39:37;;;;;;;6.25;4.35;;;;;;;35.65;26.14;100226.61;1720903;83;21504;-70
2022/07/05 09:42:27;;;;;;;7.35;4.30;;;;;;;35.57;26.34;100217.66;1720921;82;21072;-68
2022/07/05 09:44:56;;;;;;;8.23;3.98;;;;;;;35.32;26.74;100225.59;1739116;82;21091;-69
2022/07/05 09:47:30;;;;;;;9.83;4.85;;;;;;;35.09;26.67;100226.78;1745912;82;21023;-67
2022/07/05 09:50:04;;;;;;;8.38;4.70;;;;;;;34.99;26.58;100223.66;1747299;82;21087;-68
2022/07/05 09:52:36;;;;;;;7.72;4.40;;;;;;;34.87;26.86;100225.39;1730066;82;21123;-68
2022/07/05 09:55:18;;;;;;;5.67;4.20;;;;;;;34.74;26.91;100226.63;1732754;81;21048;-69
2022/07/05 09:57:48;;;;;;;6.25;4.30;;;;;;;34.58;26.99;100224.34;1724682;82;21103;-67
2022/07/05 10:00:19;;;;;;;6.25;4.03;;;;;;;34.50;26.54;100219.64;1736075;82;21086;-65
2022/07/05 10:02:53;;;;;;;7.00;3.92;;;;;;;34.36;27.00;100214.94;1710601;83;21102;-68
2022/07/05 10:05:27;;;;;;;7.58;4.30;;;;;;;34.32;27.02;100220.48;1743705;82;21270;-69
2022/07/05 10:08:01;;;;;;;6.17;4.45;;;;;;;34.36;27.05;100213.52;1709698;83;21052;-67
2022/07/05 10:10:32;;;;;;;6.85;4.08;;;;;;;34.38;27.05;100213.38;1731170;82;21107;-68
2022/07/05 10:13:07;;;;;;;6.78;4.17;;;;;;;34.42;27.34;100214.91;1692879;83;21110;-70
2022/07/05 10:15:36;;;;;;;5.72;4.30;;;;;;;34.48;27.21;100214.91;1701475;84;21466;-68
2022/07/05 10:18:14;;;;;;;7.03;4.12;;;;;;;34.51;27.01;100212.77;1707252;83;21031;-67
2022/07/05 10:20:45;;;;;;;5.60;4.00;;;;;;;34.43;27.22;100206.01;1705513;83;21459;-68
2022/07/05 10:23:17;;;;;;;6.15;4.00;;;;;;;34.37;26.66;100202.36;1705456;83;21089;-69
2022/07/05 10:25:48;;;;;;;5.85;4.00;;;;;;;34.36;26.95;100203.56;1722450;82;21537;-68
2022/07/05 10:28:19;;;;;;;5.90;4.05;;;;;;;34.38;26.50;100196.31;1709732;83;21058;-69
2022/07/05 10:30:52;;;;;;;7.30;4.30;;;;;;;34.39;26.49;100197.14;1697923;83;21062;-68
2022/07/05 10:33:26;;;;;;;6.97;4.03;;;;;;;34.33;26.29;100202.27;1712626;83;21063;-68
2022/07/05 10:35:57;;;;;;;7.30;4.00;;;;;;;34.10;26.40;100194.86;1677921;84;21121;-69
2022/07/05 10:38:27;;;;;;;7.85;4.25;;;;;;;33.89;26.91;100189.36;1747455;82;21023;-67
2022/07/05 10:40:59;;;;;;;8.58;4.35;;;;;;;33.72;27.28;100183.89;1718348;83;21024;-69
2022/07/05 10:43:29;;;;;;;8.85;4.20;;;;;;;33.62;27.32;100189.48;1701389;82;21035;-69
2022/07/05 10:45:58;;;;;;;6.20;4.05;;;;;;;33.64;27.52;100187.11;1735276;82;21085;-69
2022/07/05 10:48:29;;;;;;;7.35;4.37;;;;;;;33.70;27.39;100184.84;1709032;82;21162;-67
2022/07/05 10:51:17;;;;;;;5.55;4.03;;;;;;;33.75;27.61;100180.92;1744929;82;21058;-67
2022/07/05 10:54:02;;;;;;;6.30;4.08;;;;;;;33.85;28.15;100182.73;1715428;83;21040;-69
2022/07/05 10:56:33;;;;;;;8.00;4.20;;;;;;;33.94;27.62;100185.44;1731397;82;21444;-72
2022/07/05 10:59:11;;;;;;;7.92;4.65;;;;;;;33.89;27.81;100184.27;1712219;83;21502;-68
2022/07/05 11:01:41;;;;;;;9.20;6.60;;;;;;;33.84;28.04;100181.68;1714169;82;21110;-67
2022/07/05 11:04:21;;;;;;;11.25;6.17;;;;;;;33.71;28.23;100180.22;1730544;82;21048;-69
2022/07/05 11:06:50;;;;;;;10.00;4.53;;;;;;;33.62;28.44;100177.28;1729814;82;21071;-66
2022/07/05 11:09:22;;;;;;;9.90;4.33;;;;;;;33.57;28.45;100178.36;1701925;83;21047;-69
2022/07/05 11:12:00;;;;;;;7.17;4.30;;;;;;;33.53;28.51;100179.43;1695764;83;21062;-69
2022/07/05 11:14:34;;;;;;;8.18;4.95;;;;;;;33.39;28.57;100176.96;1689181;83;21028;-67
2022/07/05 11:17:25;;;;;;;6.53;3.92;;;;;;;33.23;29.17;100177.41;1650819;86;21533;-67
2022/07/05 11:20:07;;;;;;;5.25;4.25;;;;;;;33.17;29.02;100179.66;1652459;86;21067;-67
2022/07/05 11:22:36;;;;;;;6.03;4.37;;;;;;;33.05;29.17;100167.68;1622239;88;21539;-66
2022/07/05 11:25:06;;;;;;;11.93;4.80;;;;;;;32.98;29.25;100166.61;1682772;85;21096;-67
2022/07/05 11:27:37;;;;;;;7.85;5.10;;;;;;;32.94;29.07;100167.91;1656235;85;21045;-67
2022/07/05 11:30:23;;;;;;;6.55;4.45;;;;;;;32.87;29.22;100170.51;1663408;85;21110;-68
2022/07/05 11:32:55;;;;;;;6.47;4.03;;;;;;;32.82;29.45;100165.66;1686961;83;21071;-67
2022/07/05 11:35:32;;;;;;;6.30;4.45;;;;;;;32.71;29.76;100166.67;1719766;80;21102;-67
2022/07/05 11:38:11;;;;;;;6.25;4.75;;;;;;;32.62;30.32;100155.42;1784466;80;21078;-67
2022/07/05 11:40:43;;;;;;;7.37;4.75;;;;;;;32.58;30.74;100167.23;1749499;80;21139;-68
2022/07/05 11:43:13;;;;;;;8.08;5.17;;;;;;;32.55;31.04;100162.85;1776978;80;21094;-68
2022/07/05 11:45:45;;;;;;;6.15;4.25;;;;;;;32.50;30.88;100171.55;1771768;80;21468;-69
2022/07/05 11:48:17;;;;;;;6.87;4.40;;;;;;;32.47;30.91;100165.41;1784899;80;21546;-68